Terminal Aerodrome Forecast
Issued by NWS

Home | Current Version | Previous Version | Text Only | Print | Product List | Glossary On
Versions: 1 2 3 4 5 6 7 8 9 10 11 12 13 14 15 16 17 18 19 20 21 22 23 24 25 26 27 28 29 30 31 32 33 34 35 36
000
FTUS45 KBYZ 250447 AAB
TAFLVM
TAF AMD
KLVM 250447Z 2505/2524 09012KT 2SM -SN SCT015 BKN025
      TEMPO 2506/2508 3/4SM -SN BKN008
     FM250800 09016KT 3/4SM -SN OVC007
     FM251800 09012KT 2SM -SN OVC010=

USA.gov is the U.S. government's official web portal to all federal, state and local government web resources and services.